Time;durP1;ratioP1;P1;durP2;ratioP2;P2;SDS_P1;SDS_P2;PMS_P1;PMS_P2;Temp;Humidity;BMP_temperature;BMP_pressure;BME280_temperature;BME280_humidity;BME280_pressure;Samples;Min_cycle;Max_cycle;Signal;HPM_P1;HPM_P2
2023/09/15 00:00:32;;;;;;;4.18;2.10;;;8.60;95.50;;;;;;4989512;28;20034;-70
2023/09/15 00:02:58;;;;;;;6.00;2.30;;;8.60;95.40;;;;;;4988446;28;20080;-73
2023/09/15 00:05:29;;;;;;;3.50;2.00;;;8.60;95.20;;;;;;4994146;28;20026;-70
2023/09/15 00:07:58;;;;;;;5.13;1.70;;;8.60;95.70;;;;;;4995511;28;20034;-70
2023/09/15 00:10:23;;;;;;;3.60;1.70;;;8.60;95.70;;;;;;4996418;28;20472;-70
2023/09/15 00:12:49;;;;;;;7.13;1.75;;;8.50;95.50;;;;;;4987873;28;20042;-70
2023/09/15 00:15:15;;;;;;;6.90;1.98;;;8.50;95.60;;;;;;4990781;28;20089;-70
2023/09/15 00:17:42;;;;;;;2.50;1.70;;;8.50;95.70;;;;;;4985097;28;20527;-71
2023/09/15 00:20:16;;;;;;;4.13;1.92;;;8.50;95.80;;;;;;4989647;28;20050;-71
2023/09/15 00:22:51;;;;;;;6.88;1.90;;;8.60;95.90;;;;;;4997182;28;20037;-70
2023/09/15 00:25:28;;;;;;;4.28;1.80;;;8.50;95.80;;;;;;4990922;28;20418;-70
2023/09/15 00:27:55;;;;;;;4.05;1.75;;;8.50;95.40;;;;;;4989435;28;20212;-70
2023/09/15 00:30:22;;;;;;;3.55;1.95;;;8.40;95.30;;;;;;4989329;28;20030;-71
2023/09/15 00:32:49;;;;;;;4.30;2.20;;;8.40;95.40;;;;;;4986647;28;20485;-70
2023/09/15 00:35:20;;;;;;;4.45;2.00;;;8.40;95.80;;;;;;4994085;28;20041;-71
2023/09/15 00:37:46;;;;;;;5.30;2.38;;;8.50;96.10;;;;;;4991772;28;20023;-70
2023/09/15 00:40:13;;;;;;;3.70;2.05;;;8.50;96.10;;;;;;4984459;28;20117;-71
2023/09/15 00:42:42;;;;;;;5.97;1.90;;;8.50;96.00;;;;;;4995816;28;20046;-71
2023/09/15 00:45:09;;;;;;;6.15;1.98;;;8.50;95.90;;;;;;4975839;28;20471;-71
2023/09/15 00:47:35;;;;;;;5.03;2.03;;;8.40;95.90;;;;;;4988910;28;20031;-70
2023/09/15 00:50:03;;;;;;;8.43;1.98;;;8.40;95.90;;;;;;4989526;28;20136;-70
2023/09/15 00:52:29;;;;;;;3.85;2.03;;;8.30;95.80;;;;;;4993564;28;20041;-70
2023/09/15 00:54:55;;;;;;;2.70;1.70;;;8.40;95.90;;;;;;4979247;28;20541;-71
2023/09/15 00:57:21;;;;;;;4.97;1.80;;;8.30;95.70;;;;;;4995240;28;20105;-71
2023/09/15 00:59:48;;;;;;;4.60;1.95;;;8.20;95.70;;;;;;4984816;28;20065;-70
2023/09/15 01:02:14;;;;;;;6.13;2.20;;;8.20;95.80;;;;;;4991168;28;20502;-70
2023/09/15 01:04:41;;;;;;;6.30;1.90;;;8.20;95.80;;;;;;4996891;28;20042;-72
2023/09/15 01:07:07;;;;;;;5.95;2.28;;;8.20;95.70;;;;;;4999899;28;20030;-70
2023/09/15 01:09:33;;;;;;;5.03;1.83;;;8.30;96.10;;;;;;4977623;28;20044;-70
2023/09/15 01:11:58;;;;;;;3.65;1.98;;;8.20;96.10;;;;;;4996341;28;20034;-70
2023/09/15 01:14:24;;;;;;;3.55;1.70;;;8.30;96.40;;;;;;4986418;28;20022;-70
2023/09/15 01:17:01;;;;;;;3.63;1.83;;;8.30;96.40;;;;;;4982105;28;20456;-70
2023/09/15 01:19:57;;;;;;;5.28;2.20;;;8.30;96.30;;;;;;4985530;28;20030;-72
2023/09/15 01:22:36;;;;;;;3.97;2.03;;;8.20;96.00;;;;;;4994256;28;20502;-69
2023/09/15 01:25:20;;;;;;;4.80;1.80;;;8.10;95.80;;;;;;4985580;28;20092;-70
2023/09/15 01:28:12;;;;;;;7.80;2.20;;;8.10;95.80;;;;;;4991907;28;20026;-71
2023/09/15 01:30:38;;;;;;;7.47;2.25;;;8.10;95.90;;;;;;4989621;28;20049;-70
2023/09/15 01:33:06;;;;;;;4.90;1.90;;;8.10;95.90;;;;;;4988701;28;20042;-70
2023/09/15 01:35:32;;;;;;;3.38;1.85;;;8.00;96.00;;;;;;4990761;28;20524;-70
2023/09/15 01:37:59;;;;;;;3.65;1.90;;;8.00;96.00;;;;;;4989867;28;20073;-71
2023/09/15 01:40:25;;;;;;;6.35;2.20;;;8.00;96.00;;;;;;4986568;28;20043;-70
2023/09/15 01:42:53;;;;;;;4.72;2.38;;;8.00;96.00;;;;;;4990923;28;20064;-71
2023/09/15 01:45:18;;;;;;;4.30;1.98;;;7.90;95.90;;;;;;4987398;28;20037;-71
2023/09/15 01:47:45;;;;;;;2.80;1.80;;;8.00;96.10;;;;;;5000437;28;20025;-70
2023/09/15 01:50:11;;;;;;;3.60;2.10;;;8.00;96.00;;;;;;4981632;28;20121;-70
2023/09/15 01:52:37;;;;;;;4.63;2.20;;;7.90;96.00;;;;;;4995520;28;20681;-70
2023/09/15 01:55:05;;;;;;;4.82;2.15;;;7.90;96.00;;;;;;4995218;28;20030;-71
2023/09/15 01:57:30;;;;;;;6.47;2.10;;;7.90;96.20;;;;;;4986389;28;20034;-71
2023/09/15 01:59:59;;;;;;;3.95;1.98;;;7.90;96.30;;;;;;4990883;28;20045;-71
2023/09/15 02:02:24;;;;;;;3.78;1.90;;;7.80;96.30;;;;;;4984108;28;20049;-70
2023/09/15 02:04:50;;;;;;;5.38;1.90;;;7.80;96.40;;;;;;4985293;28;20410;-71
2023/09/15 02:07:16;;;;;;;5.00;1.98;;;8.00;96.60;;;;;;4992265;28;20138;-70
2023/09/15 02:09:41;;;;;;;3.50;2.00;;;8.00;96.70;;;;;;4992139;28;20057;-70
2023/09/15 02:12:07;;;;;;;3.70;2.08;;;7.90;96.50;;;;;;4993284;28;20038;-70
2023/09/15 02:14:34;;;;;;;3.13;1.95;;;7.90;96.40;;;;;;4990330;28;20486;-72
2023/09/15 02:17:00;;;;;;;5.57;2.30;;;7.80;96.40;;;;;;4984850;28;20030;-70
2023/09/15 02:19:26;;;;;;;3.60;1.77;;;7.90;96.70;;;;;;4987556;28;20687;-70
2023/09/15 02:21:51;;;;;;;4.70;1.73;;;7.90;96.60;;;;;;4995997;28;20044;-69
2023/09/15 02:24:17;;;;;;;4.63;2.22;;;7.90;96.70;;;;;;4997825;28;20541;-70
2023/09/15 02:26:42;;;;;;;4.90;1.98;;;7.90;96.80;;;;;;4988270;28;20019;-72
2023/09/15 02:29:08;;;;;;;5.70;2.20;;;8.00;96.80;;;;;;4993978;28;20395;-71
2023/09/15 02:31:33;;;;;;;5.53;2.42;;;7.90;96.70;;;;;;4997105;28;20018;-70
2023/09/15 02:33:59;;;;;;;3.70;2.10;;;7.90;96.70;;;;;;4986881;28;20042;-70
2023/09/15 02:36:26;;;;;;;3.85;2.25;;;7.90;96.80;;;;;;4994535;28;20050;-70
2023/09/15 02:38:54;;;;;;;4.90;2.40;;;7.80;96.70;;;;;;5002305;28;20033;-72
2023/09/15 02:41:22;;;;;;;6.40;2.03;;;7.80;96.40;;;;;;4997442;28;20033;-69
2023/09/15 02:43:48;;;;;;;4.32;1.95;;;7.80;96.80;;;;;;5001200;28;20046;-71
2023/09/15 02:46:13;;;;;;;3.90;2.20;;;7.90;96.80;;;;;;5007340;28;20041;-70
2023/09/15 02:48:41;;;;;;;4.57;1.92;;;7.90;96.80;;;;;;5001696;28;20101;-70
2023/09/15 02:51:07;;;;;;;5.18;2.20;;;8.00;96.80;;;;;;4983580;28;20431;-70
2023/09/15 02:53:32;;;;;;;7.38;2.33;;;8.00;96.80;;;;;;4999349;28;20114;-70
2023/09/15 02:55:59;;;;;;;4.88;2.13;;;8.10;97.10;;;;;;5009370;28;20124;-70
2023/09/15 02:58:26;;;;;;;3.53;1.63;;;8.10;96.80;;;;;;4984666;28;20109;-69
2023/09/15 03:00:52;;;;;;;4.68;2.38;;;8.10;96.80;;;;;;4989648;28;20041;-70
2023/09/15 03:03:17;;;;;;;8.68;2.22;;;8.10;96.80;;;;;;4997370;28;20478;-71
2023/09/15 03:05:43;;;;;;;3.70;2.28;;;8.10;96.80;;;;;;4995210;28;20042;-70
2023/09/15 03:08:09;;;;;;;5.15;2.30;;;8.10;96.80;;;;;;4991045;28;20046;-70
2023/09/15 03:10:34;;;;;;;3.35;2.00;;;8.10;97.00;;;;;;4992836;28;20077;-69
2023/09/15 03:13:02;;;;;;;6.18;2.22;;;8.10;96.90;;;;;;4995461;28;20129;-70
2023/09/15 03:15:27;;;;;;;4.53;2.22;;;8.10;97.00;;;;;;4990631;28;20379;-70
2023/09/15 03:17:53;;;;;;;5.65;2.47;;;8.10;97.00;;;;;;4992941;28;20034;-70
2023/09/15 03:20:19;;;;;;;4.13;2.50;;;8.10;97.00;;;;;;4991053;28;20100;-72
2023/09/15 03:22:46;;;;;;;8.00;2.38;;;8.10;96.90;;;;;;4996193;28;20030;-72
2023/09/15 03:25:14;;;;;;;5.25;2.60;;;8.20;97.10;;;;;;4997664;28;20101;-70
2023/09/15 03:27:39;;;;;;;3.80;1.95;;;8.20;97.10;;;;;;5001682;28;20053;-70
2023/09/15 03:30:06;;;;;;;4.47;2.40;;;8.20;96.90;;;;;;4990874;28;20073;-70
2023/09/15 03:32:32;;;;;;;4.32;2.25;;;8.30;97.00;;;;;;4989817;28;20471;-70
2023/09/15 03:34:57;;;;;;;4.82;2.38;;;8.30;96.90;;;;;;4996142;28;20033;-72
2023/09/15 03:37:23;;;;;;;4.50;2.10;;;8.40;97.10;;;;;;4976680;28;20034;-70
2023/09/15 03:39:48;;;;;;;3.65;2.17;;;8.40;97.20;;;;;;4991745;28;20045;-71
2023/09/15 03:42:14;;;;;;;2.92;1.83;;;8.50;97.20;;;;;;5001037;28;20049;-70
2023/09/15 03:44:39;;;;;;;5.50;2.30;;;8.50;97.20;;;;;;4998554;28;20033;-71
2023/09/15 03:47:05;;;;;;;4.00;2.42;;;8.50;97.10;;;;;;4986940;28;20030;-71
2023/09/15 03:49:30;;;;;;;6.93;2.17;;;8.50;97.10;;;;;;4990885;28;20121;-70
2023/09/15 03:51:56;;;;;;;5.00;2.60;;;8.50;97.20;;;;;;4997997;28;20058;-70
2023/09/15 03:54:23;;;;;;;5.05;2.40;;;8.60;97.20;;;;;;4976881;28;20122;-70
2023/09/15 03:56:49;;;;;;;8.38;2.50;;;8.60;97.20;;;;;;4974374;28;20108;-72
2023/09/15 03:59:14;;;;;;;5.57;2.63;;;8.80;97.50;;;;;;4983835;28;20101;-72
2023/09/15 04:01:39;;;;;;;4.65;2.47;;;8.80;97.40;;;;;;4982499;28;20053;-71
2023/09/15 04:04:05;;;;;;;5.35;2.58;;;8.90;97.30;;;;;;4989119;28;20026;-72
2023/09/15 04:06:32;;;;;;;6.18;2.70;;;8.90;97.30;;;;;;4995272;28;20113;-71
2023/09/15 04:08:58;;;;;;;5.07;2.70;;;9.00;97.30;;;;;;4993966;28;20431;-70
2023/09/15 04:11:24;;;;;;;4.55;2.70;;;9.00;97.30;;;;;;4990916;28;20041;-71
2023/09/15 04:13:50;;;;;;;8.40;2.55;;;9.10;97.30;;;;;;4987563;28;20034;-74
2023/09/15 04:16:15;;;;;;;8.77;2.78;;;9.20;97.30;;;;;;4989655;28;20038;-73
2023/09/15 04:18:41;;;;;;;5.30;2.90;;;9.30;97.20;;;;;;4983771;28;20463;-70
2023/09/15 04:21:06;;;;;;;6.18;3.05;;;9.30;97.30;;;;;;4989761;28;20034;-70
2023/09/15 04:23:32;;;;;;;8.90;3.05;;;9.40;97.20;;;;;;4990683;28;20030;-70
2023/09/15 04:25:57;;;;;;;6.15;2.70;;;9.50;97.10;;;;;;4979743;28;20036;-72
2023/09/15 04:28:23;;;;;;;6.57;3.17;;;9.60;97.00;;;;;;4981774;28;20071;-64
2023/09/15 04:30:48;;;;;;;5.63;2.70;;;9.60;96.90;;;;;;4989316;28;20081;-67
2023/09/15 04:33:14;;;;;;;4.68;2.75;;;9.60;96.80;;;;;;4966672;28;20027;-66
2023/09/15 04:35:40;;;;;;;5.53;2.50;;;9.60;96.80;;;;;;4982926;28;20042;-65
2023/09/15 04:38:06;;;;;;;4.63;2.53;;;9.60;96.80;;;;;;4984842;28;20452;-65
2023/09/15 04:40:31;;;;;;;7.13;2.42;;;9.70;96.80;;;;;;4991109;28;20031;-66
2023/09/15 04:42:59;;;;;;;4.63;2.38;;;9.70;96.90;;;;;;4984783;28;20223;-65
2023/09/15 04:45:25;;;;;;;7.22;2.50;;;9.70;96.80;;;;;;4974973;28;20117;-65
2023/09/15 04:47:50;;;;;;;5.22;2.95;;;9.80;96.70;;;;;;4992344;28;20037;-68
2023/09/15 04:50:16;;;;;;;8.88;2.50;;;9.90;96.60;;;;;;4989115;28;20064;-66
2023/09/15 04:52:41;;;;;;;5.53;2.60;;;10.00;96.50;;;;;;4989820;28;20035;-66
2023/09/15 04:55:07;;;;;;;5.15;2.75;;;10.00;96.40;;;;;;4993638;28;20038;-67
2023/09/15 04:57:33;;;;;;;5.07;3.08;;;10.10;96.30;;;;;;4976708;28;20033;-65
2023/09/15 04:59:58;;;;;;;4.88;2.47;;;10.10;96.10;;;;;;4990810;28;20053;-65
2023/09/15 05:02:24;;;;;;;3.55;2.42;;;10.20;96.10;;;;;;4987828;28;20069;-65
2023/09/15 05:04:53;;;;;;;6.25;2.28;;;10.20;96.10;;;;;;4998152;28;20077;-65
2023/09/15 05:07:19;;;;;;;8.25;2.80;;;10.20;96.10;;;;;;4990110;28;20026;-65
2023/09/15 05:09:45;;;;;;;4.43;2.13;;;10.30;96.20;;;;;;4966475;28;20035;-65
2023/09/15 05:12:11;;;;;;;7.57;2.50;;;10.30;96.30;;;;;;4993752;28;20121;-65
2023/09/15 05:14:36;;;;;;;6.53;2.80;;;10.30;96.40;;;;;;4992170;28;20117;-65
2023/09/15 05:17:03;;;;;;;4.88;2.42;;;10.40;96.40;;;;;;4985634;28;20076;-65
2023/09/15 05:19:28;;;;;;;5.57;2.45;;;10.40;96.40;;;;;;4971415;28;20497;-65
2023/09/15 05:21:54;;;;;;;6.70;2.67;;;10.50;96.10;;;;;;4991372;28;20034;-66
2023/09/15 05:24:19;;;;;;;8.15;2.35;;;10.50;96.00;;;;;;4975582;28;20499;-65
2023/09/15 05:26:45;;;;;;;4.50;2.45;;;10.60;96.10;;;;;;4990256;28;20105;-66
2023/09/15 05:29:10;;;;;;;5.63;2.50;;;10.60;96.10;;;;;;4989038;28;20045;-65
2023/09/15 05:31:36;;;;;;;4.45;2.08;;;10.70;96.20;;;;;;4986912;28;20043;-64
2023/09/15 05:34:02;;;;;;;4.75;2.33;;;10.70;96.10;;;;;;4967776;28;20038;-65
2023/09/15 05:36:28;;;;;;;6.07;2.38;;;10.80;96.10;;;;;;4984529;28;20486;-66
2023/09/15 05:38:53;;;;;;;5.30;2.35;;;10.80;96.10;;;;;;4989039;28;20046;-65
2023/09/15 05:41:19;;;;;;;5.40;2.15;;;10.90;95.70;;;;;;4988087;28;20039;-67
2023/09/15 05:43:45;;;;;;;6.72;2.47;;;11.00;95.60;;;;;;4988039;28;20554;-65
2023/09/15 05:46:10;;;;;;;3.22;2.10;;;11.00;95.60;;;;;;4974956;28;20045;-65
2023/09/15 05:48:36;;;;;;;5.78;1.98;;;11.10;95.40;;;;;;4987579;28;20109;-65
2023/09/15 05:51:06;;;;;;;6.05;2.58;;;11.10;95.40;;;;;;4984448;28;20029;-66
2023/09/15 05:53:32;;;;;;;5.40;2.20;;;11.20;95.30;;;;;;4988653;28;20121;-65
2023/09/15 05:55:57;;;;;;;6.15;2.65;;;11.30;95.00;;;;;;4988624;28;20459;-68
2023/09/15 05:58:23;;;;;;;4.30;2.08;;;11.30;94.70;;;;;;4985688;28;20482;-64
2023/09/15 06:00:50;;;;;;;3.67;2.05;;;11.40;94.50;;;;;;4986918;28;20390;-66
2023/09/15 06:03:16;;;;;;;4.97;2.17;;;11.50;94.50;;;;;;4967419;28;20825;-68
2023/09/15 06:05:41;;;;;;;5.72;2.38;;;11.60;94.50;;;;;;4986908;28;20031;-65
2023/09/15 06:08:08;;;;;;;5.60;2.08;;;11.60;94.50;;;;;;4978627;28;20045;-65
2023/09/15 06:10:35;;;;;;;3.65;1.88;;;11.60;93.90;;;;;;4995483;28;20133;-65
2023/09/15 06:13:01;;;;;;;3.35;1.83;;;11.70;94.10;;;;;;4998995;28;20030;-66
2023/09/15 06:15:26;;;;;;;4.60;2.10;;;11.80;93.90;;;;;;4983111;28;20042;-66
2023/09/15 06:17:52;;;;;;;4.45;2.05;;;11.90;93.80;;;;;;4987645;28;20030;-67
2023/09/15 06:20:17;;;;;;;4.13;1.92;;;11.90;93.40;;;;;;5001952;28;20038;-66
2023/09/15 06:22:43;;;;;;;6.07;1.90;;;12.00;93.10;;;;;;4999417;28;20046;-65
2023/09/15 06:25:08;;;;;;;7.35;2.60;;;12.10;93.30;;;;;;4969710;28;20156;-66
2023/09/15 06:27:34;;;;;;;4.75;2.20;;;12.20;93.20;;;;;;4991100;28;20070;-67
2023/09/15 06:30:00;;;;;;;9.20;2.13;;;12.30;93.10;;;;;;4992730;28;20033;-64
2023/09/15 06:32:26;;;;;;;4.03;2.15;;;12.30;92.60;;;;;;4982954;28;20027;-69
2023/09/15 06:34:51;;;;;;;3.75;1.95;;;12.40;92.70;;;;;;4991139;28;20048;-66
2023/09/15 06:37:17;;;;;;;4.95;2.15;;;12.40;92.50;;;;;;4970103;28;20027;-66
2023/09/15 06:39:42;;;;;;;5.15;2.00;;;12.50;92.50;;;;;;4989463;28;20062;-66
2023/09/15 06:42:08;;;;;;;3.17;1.67;;;12.60;92.60;;;;;;4986455;28;20061;-66
2023/09/15 06:44:35;;;;;;;3.83;2.10;;;12.60;91.70;;;;;;4989813;28;20478;-66
2023/09/15 06:47:00;;;;;;;3.80;1.85;;;12.50;90.70;;;;;;4988153;28;20740;-65
2023/09/15 06:49:26;;;;;;;5.60;2.20;;;12.60;91.10;;;;;;4971964;28;20133;-65
2023/09/15 06:51:53;;;;;;;2.65;1.83;;;12.70;90.70;;;;;;4983067;28;20463;-65
2023/09/15 06:54:18;;;;;;;3.40;1.70;;;12.80;91.40;;;;;;4988657;28;20019;-67
2023/09/15 06:56:44;;;;;;;4.50;2.10;;;12.80;90.50;;;;;;4972012;28;20547;-66
2023/09/15 06:59:09;;;;;;;4.45;2.00;;;12.80;90.30;;;;;;4988171;28;20033;-65
2023/09/15 07:01:35;;;;;;;3.92;1.70;;;12.80;90.50;;;;;;4987919;28;20223;-65
2023/09/15 07:04:00;;;;;;;4.07;1.90;;;12.90;90.40;;;;;;4987971;28;20106;-65
2023/09/15 07:06:26;;;;;;;3.65;1.90;;;13.00;90.20;;;;;;4965060;28;20035;-65
2023/09/15 07:08:51;;;;;;;4.97;1.73;;;13.10;89.30;;;;;;4991176;28;20395;-66
2023/09/15 07:11:17;;;;;;;4.18;1.52;;;13.10;89.20;;;;;;4992488;28;20082;-66
2023/09/15 07:13:42;;;;;;;4.03;1.80;;;13.20;89.00;;;;;;4976482;28;20485;-65
2023/09/15 07:16:09;;;;;;;3.03;1.80;;;13.20;89.20;;;;;;4992558;28;20034;-66
2023/09/15 07:18:35;;;;;;;2.95;1.40;;;13.30;89.10;;;;;;4986789;28;20019;-65
2023/09/15 07:21:00;;;;;;;5.07;2.00;;;13.40;88.90;;;;;;4992196;28;20034;-65
2023/09/15 07:23:26;;;;;;;5.93;1.70;;;13.50;88.90;;;;;;4985529;28;20077;-65
2023/09/15 07:25:51;;;;;;;2.85;1.60;;;13.60;89.00;;;;;;4998154;28;20499;-65
2023/09/15 07:28:17;;;;;;;2.38;1.60;;;13.50;88.60;;;;;;4994109;28;20037;-65
2023/09/15 07:30:42;;;;;;;4.15;1.60;;;13.50;88.50;;;;;;4992841;28;20045;-65
2023/09/15 07:33:08;;;;;;;5.18;1.80;;;13.60;88.70;;;;;;4988467;28;20026;-66
2023/09/15 07:35:36;;;;;;;3.50;1.75;;;13.60;88.50;;;;;;4994331;28;20029;-65
2023/09/15 07:38:02;;;;;;;5.93;2.08;;;13.60;88.50;;;;;;4977972;28;20106;-65
2023/09/15 07:40:28;;;;;;;4.63;1.45;;;13.60;89.00;;;;;;4983020;28;20058;-67
2023/09/15 07:42:53;;;;;;;4.53;1.45;;;13.80;88.30;;;;;;4983138;28;20509;-66
2023/09/15 07:45:19;;;;;;;2.92;1.73;;;13.80;88.30;;;;;;4972163;28;20079;-65
2023/09/15 07:47:45;;;;;;;4.60;2.00;;;13.90;87.90;;;;;;4993338;28;20041;-66
2023/09/15 07:50:10;;;;;;;5.35;1.48;;;14.00;88.20;;;;;;4991394;28;20034;-66
2023/09/15 07:52:36;;;;;;;3.97;1.60;;;14.10;87.70;;;;;;4994630;28;20161;-66
2023/09/15 07:55:01;;;;;;;4.53;1.73;;;14.30;87.50;;;;;;4991293;28;20383;-69
2023/09/15 07:57:29;;;;;;;3.55;1.70;;;14.50;87.00;;;;;;4993359;28;20070;-65
2023/09/15 07:59:54;;;;;;;3.72;1.48;;;14.70;87.50;;;;;;4995545;28;20050;-66
2023/09/15 08:02:20;;;;;;;3.90;1.58;;;14.80;86.20;;;;;;4990332;28;20438;-66
2023/09/15 08:04:46;;;;;;;5.00;1.75;;;15.00;84.30;;;;;;4994070;28;20072;-66
2023/09/15 08:07:11;;;;;;;3.25;1.65;;;15.10;85.10;;;;;;4982428;28;20056;-65
2023/09/15 08:09:37;;;;;;;3.80;2.08;;;15.30;84.30;;;;;;5005303;28;20553;-66
2023/09/15 08:12:03;;;;;;;3.80;1.42;;;15.40;84.30;;;;;;4995696;28;20105;-65
2023/09/15 08:14:29;;;;;;;7.15;1.70;;;15.50;84.00;;;;;;4966472;28;20068;-66
2023/09/15 08:16:54;;;;;;;2.95;1.58;;;15.70;83.70;;;;;;4984966;28;20085;-67
2023/09/15 08:19:22;;;;;;;4.72;1.60;;;15.80;82.90;;;;;;4972801;28;20093;-67
2023/09/15 08:21:48;;;;;;;2.78;1.55;;;16.00;81.60;;;;;;5004399;28;20038;-66
2023/09/15 08:24:13;;;;;;;4.55;1.85;;;16.30;82.90;;;;;;4996569;28;20062;-66
2023/09/15 08:26:39;;;;;;;3.17;1.60;;;16.50;81.40;;;;;;4992296;28;20034;-66
2023/09/15 08:29:05;;;;;;;2.47;1.38;;;16.70;81.40;;;;;;4990137;28;20038;-66
2023/09/15 08:31:31;;;;;;;5.13;1.70;;;16.90;81.20;;;;;;4996984;28;20034;-66
2023/09/15 08:33:57;;;;;;;2.58;1.45;;;17.10;80.30;;;;;;4990619;28;20034;-66
2023/09/15 08:36:22;;;;;;;3.90;1.60;;;17.30;78.70;;;;;;4994041;28;20037;-66
2023/09/15 08:38:48;;;;;;;2.53;1.35;;;17.40;78.20;;;;;;4989394;28;20382;-66
2023/09/15 08:41:23;;;;;;;3.97;1.55;;;17.50;77.70;;;;;;4989630;28;20597;-66
2023/09/15 08:43:49;;;;;;;7.20;1.80;;;17.80;78.30;;;;;;4990515;28;20146;-67
2023/09/15 08:46:15;;;;;;;2.70;1.48;;;17.90;76.40;;;;;;4988022;28;20055;-69
2023/09/15 08:48:46;;;;;;;4.72;1.70;;;17.90;77.40;;;;;;4981871;28;20041;-68
2023/09/15 08:51:12;;;;;;;6.30;2.08;;;18.00;76.00;;;;;;4997317;28;20037;-66
2023/09/15 08:53:38;;;;;;;5.07;1.65;;;18.20;74.10;;;;;;5001416;28;20042;-67
2023/09/15 08:56:04;;;;;;;3.15;1.42;;;18.50;74.50;;;;;;4971747;28;20034;-66
2023/09/15 08:58:30;;;;;;;5.18;1.55;;;18.60;73.50;;;;;;4993900;28;20041;-66
2023/09/15 09:00:57;;;;;;;6.03;1.67;;;18.60;73.80;;;;;;4978702;28;20045;-65
2023/09/15 09:03:23;;;;;;;3.72;1.50;;;18.70;72.00;;;;;;4985640;28;20116;-66
2023/09/15 09:05:49;;;;;;;3.55;1.60;;;18.80;73.00;;;;;;4994792;28;20035;-66
2023/09/15 09:08:18;;;;;;;2.97;1.40;;;19.00;71.90;;;;;;4999279;28;20030;-65
2023/09/15 09:10:44;;;;;;;2.30;1.42;;;19.10;72.50;;;;;;4995691;28;20038;-66
2023/09/15 09:13:11;;;;;;;3.15;1.48;;;18.90;71.10;;;;;;4994275;28;20041;-66
2023/09/15 09:15:37;;;;;;;5.07;1.63;;;19.30;73.20;;;;;;4991891;28;20101;-67
2023/09/15 09:18:13;;;;;;;3.50;1.58;;;19.40;71.60;;;;;;4987554;28;20022;-66
2023/09/15 09:20:39;;;;;;;2.45;1.55;;;19.40;69.70;;;;;;4988931;28;20513;-66
2023/09/15 09:23:07;;;;;;;4.95;1.98;;;19.40;68.30;;;;;;4971352;28;20062;-66
2023/09/15 09:25:34;;;;;;;4.32;1.73;;;19.40;68.30;;;;;;4996421;28;20297;-66
2023/09/15 09:28:00;;;;;;;6.07;1.75;;;19.70;69.10;;;;;;4990382;28;20456;-66
2023/09/15 09:30:29;;;;;;;5.00;1.77;;;19.60;67.30;;;;;;4999141;28;20038;-66
2023/09/15 09:32:56;;;;;;;5.97;1.88;;;19.50;68.20;;;;;;4980124;28;20022;-66
2023/09/15 09:35:22;;;;;;;5.65;1.85;;;19.60;67.90;;;;;;4985419;28;20046;-67
2023/09/15 09:37:48;;;;;;;4.63;1.52;;;19.50;67.00;;;;;;4980686;28;20042;-67
2023/09/15 09:40:14;;;;;;;3.70;1.50;;;19.80;68.40;;;;;;4986633;28;20046;-66
2023/09/15 09:42:41;;;;;;;5.32;1.83;;;20.10;68.60;;;;;;4990463;28;20037;-66
2023/09/15 09:45:07;;;;;;;4.53;1.55;;;20.00;65.70;;;;;;4982644;28;20040;-66
2023/09/15 09:47:33;;;;;;;4.60;1.95;;;20.00;65.30;;;;;;4990594;28;20034;-67
2023/09/15 09:50:02;;;;;;;4.93;1.70;;;20.00;66.80;;;;;;4988754;28;20065;-66
2023/09/15 09:52:29;;;;;;;5.85;1.85;;;20.20;66.80;;;;;;4984327;28;20120;-66
2023/09/15 09:54:55;;;;;;;3.22;1.48;;;20.00;66.50;;;;;;4982648;28;20473;-66
2023/09/15 09:57:21;;;;;;;4.20;1.48;;;20.00;65.90;;;;;;4993147;28;20061;-65
2023/09/15 09:59:47;;;;;;;4.30;1.65;;;19.90;64.50;;;;;;4998120;28;20066;-66
2023/09/15 10:02:12;;;;;;;3.60;1.60;;;20.40;66.20;;;;;;4990806;28;20460;-66
2023/09/15 10:04:38;;;;;;;5.20;1.60;;;20.80;64.90;;;;;;4972041;28;20070;-66
2023/09/15 10:07:04;;;;;;;3.33;1.40;;;20.70;64.80;;;;;;5001069;28;20033;-66
2023/09/15 10:09:31;;;;;;;4.75;1.73;;;20.60;65.60;;;;;;4989982;28;20023;-66
2023/09/15 10:11:57;;;;;;;5.50;2.00;;;20.90;65.20;;;;;;4989698;28;20044;-67
2023/09/15 10:14:23;;;;;;;3.83;1.30;;;21.00;63.80;;;;;;4994169;28;20360;-67
2023/09/15 10:16:51;;;;;;;3.72;1.50;;;21.00;63.50;;;;;;4993680;28;20031;-66
2023/09/15 10:19:17;;;;;;;5.43;1.80;;;21.00;63.50;;;;;;4996695;28;20048;-66
2023/09/15 10:21:43;;;;;;;3.83;1.60;;;21.30;63.80;;;;;;4999070;28;20034;-66
2023/09/15 10:24:10;;;;;;;3.83;1.40;;;21.20;63.60;;;;;;4989023;28;20108;-67
2023/09/15 10:26:41;;;;;;;4.32;1.50;;;21.00;62.30;;;;;;4989745;28;20476;-66
2023/09/15 10:29:07;;;;;;;3.88;1.60;;;21.30;63.50;;;;;;4988898;28;20994;-66
2023/09/15 10:31:34;;;;;;;3.38;1.50;;;21.10;60.40;;;;;;4992933;28;20133;-66
2023/09/15 10:34:04;;;;;;;3.30;1.45;;;20.90;62.40;;;;;;4988648;28;20525;-67
2023/09/15 10:36:30;;;;;;;4.40;1.73;;;21.20;61.90;;;;;;4987255;28;20030;-66
2023/09/15 10:38:57;;;;;;;2.47;1.25;;;21.50;64.20;;;;;;4984186;28;20038;-67
2023/09/15 10:41:27;;;;;;;3.58;1.52;;;21.20;60.90;;;;;;4980548;28;20069;-66
2023/09/15 10:43:52;;;;;;;4.68;1.85;;;21.20;61.70;;;;;;4998091;28;20033;-67
2023/09/15 10:46:18;;;;;;;5.50;1.70;;;21.50;63.10;;;;;;4992492;28;20391;-69
2023/09/15 10:48:48;;;;;;;4.07;1.67;;;21.50;62.90;;;;;;4989106;28;20479;-66
2023/09/15 10:51:16;;;;;;;5.30;1.85;;;21.50;61.10;;;;;;4986842;28;20030;-66
2023/09/15 10:53:47;;;;;;;4.45;1.40;;;21.80;61.20;;;;;;4993989;28;20117;-67
2023/09/15 10:56:14;;;;;;;3.20;1.55;;;22.00;61.40;;;;;;4993450;28;20024;-67
2023/09/15 10:58:46;;;;;;;3.42;1.27;;;21.80;60.40;;;;;;4992852;28;20037;-67
2023/09/15 11:01:13;;;;;;;2.78;1.25;;;21.80;60.60;;;;;;4995816;28;20456;-67
2023/09/15 11:03:39;;;;;;;3.75;1.55;;;21.70;58.40;;;;;;4986890;28;20069;-68
2023/09/15 11:06:11;;;;;;;2.92;1.45;;;21.70;59.30;;;;;;4993797;28;20030;-67
2023/09/15 11:08:37;;;;;;;3.08;1.48;;;21.90;60.60;;;;;;4990154;28;20038;-67
2023/09/15 11:11:10;;;;;;;3.47;1.48;;;22.20;59.90;;;;;;5004431;28;20057;-68
2023/09/15 11:13:37;;;;;;;3.45;1.50;;;22.60;59.20;;;;;;5001166;28;20032;-67
2023/09/15 11:16:03;;;;;;;3.88;1.35;;;22.90;58.00;;;;;;5003147;28;20367;-68
2023/09/15 11:18:32;;;;;;;4.55;1.63;;;22.70;57.90;;;;;;4974817;28;20121;-68
2023/09/15 11:20:58;;;;;;;3.63;1.38;;;22.80;58.10;;;;;;4992369;28;20479;-66
2023/09/15 11:23:27;;;;;;;2.45;1.10;;;22.70;56.50;;;;;;4978062;28;20507;-67
2023/09/15 11:25:59;;;;;;;4.78;1.67;;;22.70;59.80;;;;;;5009210;28;20049;-68
2023/09/15 11:28:24;;;;;;;2.85;1.20;;;22.90;59.10;;;;;;4998024;28;20041;-69
2023/09/15 11:30:52;;;;;;;2.72;1.40;;;23.00;56.90;;;;;;5007798;28;20030;-66
2023/09/15 11:33:18;;;;;;;3.42;1.30;;;22.30;58.30;;;;;;4977285;28;20145;-68
2023/09/15 11:35:47;;;;;;;3.40;1.40;;;22.70;57.30;;;;;;5001885;28;20045;-67
2023/09/15 11:38:13;;;;;;;3.55;1.50;;;23.00;56.30;;;;;;4984290;28;20027;-68
2023/09/15 11:40:45;;;;;;;4.75;1.42;;;23.50;57.20;;;;;;4992633;28;20038;-67
2023/09/15 11:43:10;;;;;;;4.53;1.40;;;23.50;53.90;;;;;;4985962;28;20422;-66
2023/09/15 11:45:36;;;;;;;2.83;1.25;;;23.60;54.90;;;;;;4988879;28;20088;-68
2023/09/15 11:48:03;;;;;;;2.78;1.17;;;23.60;55.00;;;;;;4999610;28;20372;-68
2023/09/15 11:50:30;;;;;;;2.30;1.30;;;23.60;54.90;;;;;;4983962;28;20037;-66
2023/09/15 11:52:55;;;;;;;2.28;1.40;;;24.50;55.30;;;;;;5005456;28;20034;-66
2023/09/15 11:55:23;;;;;;;2.28;0.95;;;24.30;51.70;;;;;;4983675;28;20395;-67
2023/09/15 11:57:52;;;;;;;3.08;1.33;;;24.40;52.30;;;;;;4998688;28;20045;-67
2023/09/15 12:00:22;;;;;;;2.65;1.20;;;24.30;53.80;;;;;;5005691;28;20069;-67
2023/09/15 12:02:48;;;;;;;2.55;1.23;;;23.80;56.10;;;;;;4991878;28;20042;-68
2023/09/15 12:05:15;;;;;;;2.95;1.40;;;24.40;53.20;;;;;;4998071;28;20038;-67
2023/09/15 12:07:43;;;;;;;2.78;1.35;;;24.40;53.50;;;;;;5004977;28;20034;-67
2023/09/15 12:10:12;;;;;;;3.60;1.27;;;24.60;54.50;;;;;;4990060;28;20034;-67
2023/09/15 12:12:37;;;;;;;3.30;1.30;;;25.00;51.30;;;;;;4995746;28;20383;-69
2023/09/15 12:15:06;;;;;;;3.45;1.00;;;24.60;49.30;;;;;;4976102;28;20602;-67
2023/09/15 12:17:31;;;;;;;3.20;1.20;;;24.40;52.50;;;;;;4983486;28;20036;-67
2023/09/15 12:20:04;;;;;;;2.50;1.25;;;24.60;51.20;;;;;;4982746;28;20042;-67
2023/09/15 12:22:33;;;;;;;2.42;1.20;;;25.00;53.60;;;;;;4988592;28;20032;-67
2023/09/15 12:25:00;;;;;;;2.30;1.30;;;25.20;50.20;;;;;;4990125;28;20050;-67
2023/09/15 12:27:29;;;;;;;2.58;1.30;;;24.90;51.70;;;;;;4974097;28;20026;-67
2023/09/15 12:29:56;;;;;;;2.70;1.13;;;25.00;49.30;;;;;;4986657;28;20038;-66
2023/09/15 12:32:26;;;;;;;3.53;1.35;;;24.30;50.40;;;;;;4986135;28;20387;-67
2023/09/15 12:34:55;;;;;;;1.85;1.27;;;24.70;52.00;;;;;;4990632;28;20117;-67
2023/09/15 12:37:21;;;;;;;3.67;1.40;;;25.10;51.10;;;;;;4991548;28;20379;-67
2023/09/15 12:39:47;;;;;;;1.67;1.20;;;25.00;51.00;;;;;;4987129;28;20403;-67
2023/09/15 12:42:13;;;;;;;2.88;1.10;;;25.00;51.10;;;;;;4981962;28;20081;-66
2023/09/15 12:44:38;;;;;;;4.38;1.52;;;25.00;51.30;;;;;;4980094;28;20272;-67
2023/09/15 12:47:05;;;;;;;2.15;1.20;;;25.50;49.50;;;;;;4984846;28;20039;-67